createdAt,value
2022-09-09T00:02:24.675Z,1.17
2022-09-09T00:05:02.293Z,0.90
2022-09-09T00:07:44.057Z,0.80
2022-09-09T00:10:35.518Z,1.00
2022-09-09T00:13:10.691Z,1.00
2022-09-09T00:15:40.936Z,0.70
2022-09-09T00:21:08.416Z,0.82
2022-09-09T00:23:40.153Z,1.00
2022-09-09T00:26:23.032Z,0.90
2022-09-09T00:29:36.509Z,0.68
2022-09-09T00:32:15.461Z,1.00
2022-09-09T00:34:56.309Z,0.75
2022-09-09T00:37:26.414Z,0.73
2022-09-09T00:39:55.871Z,0.82
2022-09-09T00:42:33.824Z,0.80
2022-09-09T00:45:21.029Z,0.80
2022-09-09T00:47:51.221Z,0.68
2022-09-09T00:53:16.075Z,0.90
2022-09-09T00:56:10.931Z,1.05
2022-09-09T00:58:39.982Z,0.90
2022-09-09T01:01:13.537Z,0.80
2022-09-09T01:03:53.256Z,0.70
2022-09-09T01:06:25.113Z,0.90
2022-09-09T01:09:07.733Z,1.20
2022-09-09T01:12:06.736Z,0.93
2022-09-09T01:14:40.835Z,0.70
2022-09-09T01:17:33.189Z,0.80
2022-09-09T01:20:27.139Z,0.90
2022-09-09T01:23:23.999Z,0.88
2022-09-09T01:26:34.148Z,0.68
2022-09-09T01:29:11.873Z,0.73
2022-09-09T01:32:16.988Z,0.90
2022-09-09T01:34:49.646Z,0.90
2022-09-09T01:37:20.110Z,1.10
2022-09-09T01:42:22.669Z,0.77
2022-09-09T01:44:49.782Z,0.90
2022-09-09T01:47:16.731Z,0.80
2022-09-09T01:49:58.841Z,1.08
2022-09-09T01:52:28.359Z,1.13
2022-09-09T01:54:55.696Z,1.35
2022-09-09T01:57:33.376Z,0.93
2022-09-09T02:00:12.547Z,0.90
2022-09-09T02:02:46.104Z,1.00
2022-09-09T02:05:35.351Z,0.90
2022-09-09T02:08:14.356Z,1.00
2022-09-09T02:10:51.075Z,0.95
2022-09-09T02:13:32.739Z,0.83
2022-09-09T02:16:02.001Z,1.02
2022-09-09T02:18:33.625Z,0.90
2022-09-09T02:21:00.685Z,1.05
2022-09-09T02:23:29.585Z,0.85
2022-09-09T02:25:58.970Z,0.98
2022-09-09T02:28:27.723Z,0.95
2022-09-09T02:30:56.141Z,0.85
2022-09-09T02:33:34.717Z,0.80
2022-09-09T02:36:04.626Z,0.70
2022-09-09T02:38:36.808Z,1.00
2022-09-09T02:41:09.533Z,0.90
2022-09-09T02:43:38.230Z,1.27
2022-09-09T02:46:37.267Z,1.00
2022-09-09T02:49:11.369Z,1.08
2022-09-09T02:51:44.460Z,0.77
2022-09-09T02:54:21.957Z,0.50
2022-09-09T02:56:56.795Z,0.70
2022-09-09T02:59:32.085Z,0.95
2022-09-09T03:01:59.135Z,1.23
2022-09-09T03:04:26.174Z,0.77
2022-09-09T03:06:52.768Z,0.90
2022-09-09T03:09:21.162Z,0.50
2022-09-09T03:11:50.511Z,0.65
2022-09-09T03:14:22.044Z,0.80
2022-09-09T03:16:49.525Z,0.60
2022-09-09T03:19:16.244Z,0.68
2022-09-09T03:21:43.100Z,0.70
2022-09-09T03:24:10.482Z,0.88
2022-09-09T03:26:38.634Z,0.75
2022-09-09T03:29:08.530Z,0.90
2022-09-09T03:31:36.920Z,1.13
2022-09-09T03:34:03.915Z,0.95
2022-09-09T03:36:34.191Z,0.80
2022-09-09T03:39:01.834Z,0.65
2022-09-09T03:41:31.440Z,1.60
2022-09-09T03:43:59.766Z,0.60
2022-09-09T03:46:28.882Z,0.70
2022-09-09T03:48:56.292Z,0.60
2022-09-09T03:51:22.988Z,0.95
2022-09-09T03:53:50.045Z,0.90
2022-09-09T03:56:17.089Z,0.80
2022-09-09T03:58:44.095Z,0.70
2022-09-09T04:01:18.687Z,0.95
2022-09-09T04:03:46.334Z,0.70
2022-09-09T04:06:15.598Z,0.70
2022-09-09T04:08:46.007Z,0.60
2022-09-09T04:11:13.957Z,0.68
2022-09-09T04:13:41.281Z,0.70
2022-09-09T04:16:12.117Z,0.75
2022-09-09T04:18:39.393Z,0.93
2022-09-09T04:21:08.939Z,0.60
2022-09-09T04:23:37.073Z,0.80
2022-09-09T04:26:05.163Z,0.90
2022-09-09T04:28:36.609Z,0.90
2022-09-09T04:31:16.418Z,0.82
2022-09-09T04:33:44.059Z,1.10
2022-09-09T04:36:10.895Z,0.60
2022-09-09T04:38:38.115Z,0.80
2022-09-09T04:41:05.810Z,0.80
2022-09-09T04:43:35.318Z,0.93
2022-09-09T04:46:04.635Z,0.80
2022-09-09T04:48:32.617Z,0.90
2022-09-09T04:51:02.326Z,1.05
2022-09-09T04:53:30.876Z,0.50
2022-09-09T04:56:11.186Z,0.80
2022-09-09T04:58:46.413Z,0.90
2022-09-09T05:01:19.973Z,0.80
2022-09-09T05:03:49.016Z,0.68
2022-09-09T05:06:22.758Z,0.80
2022-09-09T05:08:53.666Z,0.90
2022-09-09T05:11:33.081Z,0.75
2022-09-09T05:14:05.465Z,1.05
2022-09-09T05:16:32.647Z,0.95
2022-09-09T05:19:00.179Z,1.05
2022-09-09T05:21:35.146Z,1.33
2022-09-09T05:24:02.143Z,1.10
2022-09-09T05:26:30.397Z,1.27
2022-09-09T05:28:57.964Z,1.45
2022-09-09T05:31:28.608Z,1.13
2022-09-09T05:33:55.434Z,1.10
2022-09-09T05:36:23.049Z,1.38
2022-09-09T05:38:54.746Z,1.27
2022-09-09T05:41:23.869Z,1.40
2022-09-09T05:43:52.935Z,1.50
2022-09-09T05:46:22.913Z,1.40
2022-09-09T05:48:52.824Z,1.20
2022-09-09T05:51:24.249Z,1.20
2022-09-09T05:53:52.248Z,1.17
2022-09-09T05:56:20.623Z,1.20
2022-09-09T05:58:50.717Z,1.15
2022-09-09T06:01:24.239Z,1.50
2022-09-09T06:03:52.668Z,1.02
2022-09-09T06:06:37.427Z,1.25
2022-09-09T06:09:10.550Z,1.25
2022-09-09T06:11:39.957Z,1.45
2022-09-09T06:14:07.272Z,1.17
2022-09-09T06:16:34.567Z,1.25
2022-09-09T06:19:02.128Z,1.17
2022-09-09T06:21:39.607Z,1.40
2022-09-09T06:24:08.542Z,1.45
2022-09-09T06:26:42.916Z,1.20
2022-09-09T06:29:13.164Z,1.50
2022-09-09T06:31:42.468Z,1.67
2022-09-09T06:34:20.782Z,1.48
2022-09-09T06:39:17.623Z,1.70
2022-09-09T06:41:45.551Z,1.40
2022-09-09T06:44:35.603Z,1.30
2022-09-09T06:47:03.862Z,1.85
2022-09-09T06:49:31.493Z,1.50
2022-09-09T06:51:58.291Z,1.83
2022-09-09T06:54:26.302Z,1.80
2022-09-09T06:56:54.424Z,1.40
2022-09-09T06:59:23.706Z,1.63
2022-09-09T07:01:56.068Z,1.38
2022-09-09T07:04:23.848Z,1.90
2022-09-09T07:06:51.261Z,1.58
2022-09-09T07:09:22.527Z,1.33
2022-09-09T07:11:55.423Z,1.05
2022-09-09T07:14:23.775Z,1.30
2022-09-09T07:16:59.831Z,1.40
2022-09-09T07:19:30.021Z,1.30
2022-09-09T07:21:57.256Z,2.50
2022-09-09T07:24:25.430Z,1.55
2022-09-09T07:26:52.909Z,1.42
2022-09-09T07:29:20.964Z,1.30
2022-09-09T07:31:49.542Z,1.30
2022-09-09T07:34:21.306Z,1.30
2022-09-09T07:36:48.120Z,1.17
2022-09-09T07:39:15.069Z,1.38
2022-09-09T07:41:48.891Z,1.17
2022-09-09T07:44:22.566Z,1.55
2022-09-09T07:46:53.798Z,1.60
2022-09-09T07:49:32.149Z,1.30
2022-09-09T07:52:00.674Z,1.42
2022-09-09T07:54:27.699Z,1.60
2022-09-09T07:56:54.673Z,1.30
2022-09-09T07:59:25.057Z,1.60
2022-09-09T08:01:56.673Z,1.63
2022-09-09T08:04:29.067Z,1.48
2022-09-09T08:07:00.624Z,1.50
2022-09-09T08:09:30.371Z,1.70
2022-09-09T08:12:23.677Z,1.58
2022-09-09T08:14:52.650Z,1.83
2022-09-09T08:17:22.493Z,1.20
2022-09-09T08:19:49.278Z,1.63
2022-09-09T08:22:21.643Z,1.45
2022-09-09T08:24:48.323Z,1.58
2022-09-09T08:27:15.077Z,1.40
2022-09-09T08:29:42.232Z,1.40
2022-09-09T08:32:09.616Z,1.67
2022-09-09T08:34:41.241Z,1.83
2022-09-09T08:37:12.046Z,1.98
2022-09-09T08:39:41.080Z,1.50
2022-09-09T08:42:23.075Z,1.50
2022-09-09T08:44:50.776Z,1.02
2022-09-09T08:47:48.401Z,1.58
2022-09-09T08:50:30.832Z,1.70
2022-09-09T08:53:04.007Z,1.70
2022-09-09T08:55:38.469Z,1.20
2022-09-09T08:58:15.680Z,1.33
2022-09-09T09:01:09.496Z,0.98
2022-09-09T09:03:54.873Z,1.27
2022-09-09T09:06:37.283Z,1.50
2022-09-09T09:09:24.819Z,1.17
2022-09-09T09:12:03.494Z,1.52
2022-09-09T09:14:37.004Z,1.30
2022-09-09T09:17:12.043Z,1.60
2022-09-09T09:19:40.566Z,1.20
2022-09-09T09:22:27.435Z,1.50
2022-09-09T09:25:09.344Z,1.05
2022-09-09T09:27:41.562Z,1.10
2022-09-09T09:30:36.355Z,1.10
2022-09-09T09:33:27.887Z,0.98
2022-09-09T09:35:54.900Z,0.98
2022-09-09T09:41:12.393Z,1.02
2022-09-09T09:43:41.697Z,1.50
2022-09-09T09:46:24.436Z,0.70
2022-09-09T09:49:18.492Z,1.23
2022-09-09T09:51:45.486Z,1.10
2022-09-09T09:54:28.983Z,0.93
2022-09-09T09:57:12.470Z,1.02
2022-09-09T09:59:41.025Z,1.00
2022-09-09T10:02:27.732Z,1.27
2022-09-09T10:05:26.330Z,0.70
2022-09-09T10:08:22.148Z,1.25
2022-09-09T10:11:15.022Z,1.05
2022-09-09T10:13:41.768Z,0.82
2022-09-09T10:16:33.466Z,1.10
2022-09-09T10:19:02.671Z,3.60
2022-09-09T10:21:47.682Z,4.13
2022-09-09T10:24:39.173Z,15.90
2022-09-09T10:27:13.725Z,4.30
2022-09-09T10:30:02.230Z,2.80
2022-09-09T10:32:35.737Z,3.77
2022-09-09T10:35:13.648Z,4.18
2022-09-09T10:38:06.776Z,1.00
2022-09-09T10:40:45.614Z,1.08
2022-09-09T10:43:44.671Z,0.98
2022-09-09T10:46:39.554Z,0.85
2022-09-09T10:49:28.615Z,1.98
2022-09-09T10:52:20.663Z,1.15
2022-09-09T10:55:17.981Z,0.93
2022-09-09T10:57:49.981Z,0.73
2022-09-09T11:00:25.348Z,0.77
2022-09-09T11:02:57.299Z,1.48
2022-09-09T11:05:52.517Z,0.70
2022-09-09T11:11:08.276Z,0.93
2022-09-09T11:14:04.461Z,0.93
2022-09-09T11:16:42.790Z,1.23
2022-09-09T11:19:15.985Z,0.82
2022-09-09T11:21:46.887Z,0.93
2022-09-09T11:24:20.182Z,1.20
2022-09-09T11:27:13.174Z,1.00
2022-09-09T11:30:37.641Z,0.90
2022-09-09T11:33:17.442Z,1.00
2022-09-09T11:36:21.758Z,1.00
2022-09-09T11:38:52.433Z,0.90
2022-09-09T11:41:22.025Z,0.85
2022-09-09T11:43:52.551Z,0.98
2022-09-09T11:46:22.030Z,0.70
2022-09-09T11:49:03.027Z,0.70
2022-09-09T11:51:31.557Z,0.90
2022-09-09T11:54:02.224Z,0.70
2022-09-09T11:56:55.427Z,0.60
2022-09-09T11:59:27.509Z,0.80
2022-09-09T12:02:04.678Z,0.63
2022-09-09T12:04:33.611Z,0.73
2022-09-09T12:07:23.625Z,0.80
2022-09-09T12:09:58.193Z,0.90
2022-09-09T12:12:31.059Z,1.00
2022-09-09T12:15:00.295Z,0.70
2022-09-09T12:17:29.819Z,1.08
2022-09-09T12:20:10.658Z,0.93
2022-09-09T12:22:52.738Z,0.77
2022-09-09T12:25:36.471Z,0.80
2022-09-09T12:28:07.758Z,0.95
2022-09-09T12:31:06.993Z,0.90
2022-09-09T12:33:44.264Z,0.80
2022-09-09T12:36:23.222Z,0.88
2022-09-09T12:38:51.607Z,0.85
2022-09-09T12:41:26.966Z,0.73
2022-09-09T12:44:06.905Z,0.70
2022-09-09T12:46:41.373Z,1.02
2022-09-09T12:49:28.093Z,0.65
2022-09-09T12:51:55.503Z,0.70
2022-09-09T12:54:22.343Z,0.80
2022-09-09T12:56:49.634Z,0.90
2022-09-09T12:59:27.407Z,0.70
2022-09-09T13:02:00.106Z,1.10
2022-09-09T13:04:26.986Z,0.75
2022-09-09T13:06:53.940Z,0.73
2022-09-09T13:09:20.920Z,1.00
2022-09-09T13:11:54.396Z,0.77
2022-09-09T13:14:30.145Z,0.93
2022-09-09T13:17:02.619Z,0.77
2022-09-09T13:19:33.608Z,0.80
2022-09-09T13:22:00.390Z,0.65
2022-09-09T13:24:32.782Z,0.90
2022-09-09T13:27:04.483Z,0.82
2022-09-09T13:29:32.262Z,0.70
2022-09-09T13:32:07.324Z,0.98
2022-09-09T13:34:36.238Z,0.80
2022-09-09T13:37:23.068Z,0.70
2022-09-09T13:39:56.848Z,0.98
2022-09-09T13:42:28.941Z,0.93
2022-09-09T13:44:57.154Z,0.90
2022-09-09T13:47:29.450Z,0.80
2022-09-09T13:49:56.146Z,0.88
2022-09-09T13:52:23.272Z,0.93
2022-09-09T13:54:51.060Z,0.60
2022-09-09T13:57:26.056Z,0.70
2022-09-09T14:00:11.008Z,0.75
2022-09-09T14:02:39.719Z,0.60
2022-09-09T14:05:06.872Z,0.40
2022-09-09T14:07:33.762Z,0.30
2022-09-09T14:10:01.395Z,0.47
2022-09-09T14:12:28.362Z,0.30
2022-09-09T14:14:54.998Z,0.52
2022-09-09T14:17:23.205Z,0.40
2022-09-09T14:19:49.872Z,0.60
2022-09-09T14:22:16.723Z,0.45
2022-09-09T14:24:43.755Z,0.40
2022-09-09T14:27:10.511Z,0.52
2022-09-09T14:29:37.153Z,0.70
2022-09-09T14:32:04.272Z,0.45
2022-09-09T14:34:33.391Z,0.68
2022-09-09T14:37:00.439Z,0.60
2022-09-09T14:39:27.306Z,0.60
2022-09-09T14:41:54.120Z,0.70
2022-09-09T14:44:20.820Z,0.95
2022-09-09T14:46:47.394Z,0.57
2022-09-09T14:49:14.002Z,0.50
2022-09-09T14:51:40.745Z,0.65
2022-09-09T14:54:07.403Z,0.50
2022-09-09T14:56:38.851Z,0.43
2022-09-09T14:59:05.607Z,0.40
2022-09-09T15:01:33.236Z,0.60
2022-09-09T15:04:01.834Z,0.60
2022-09-09T15:06:31.476Z,0.50
2022-09-09T15:09:01.271Z,0.60
2022-09-09T15:11:35.587Z,0.60
2022-09-09T15:14:02.348Z,0.45
2022-09-09T15:16:29.646Z,0.70
2022-09-09T15:18:58.156Z,0.60
2022-09-09T15:21:27.141Z,0.63
2022-09-09T15:23:54.588Z,0.68
2022-09-09T15:26:21.793Z,0.50
2022-09-09T15:28:49.099Z,0.95
2022-09-09T15:31:21.159Z,0.60
2022-09-09T15:34:01.812Z,0.20
2022-09-09T15:36:32.892Z,0.15
2022-09-09T15:39:01.210Z,0.17
2022-09-09T15:41:28.565Z,0.30
2022-09-09T15:44:00.131Z,0.30
2022-09-09T15:46:30.854Z,0.17
2022-09-09T15:48:59.611Z,0.20
2022-09-09T15:51:43.994Z,0.55
2022-09-09T15:54:13.631Z,0.82
2022-09-09T15:56:40.792Z,0.60
2022-09-09T15:59:07.580Z,0.68
2022-09-09T16:01:35.527Z,0.70
2022-09-09T16:04:02.644Z,0.70
2022-09-09T16:06:30.251Z,0.60
2022-09-09T16:08:58.945Z,0.50
2022-09-09T16:11:32.106Z,0.43
2022-09-09T16:14:00.539Z,0.73
2022-09-09T16:16:29.510Z,0.60
2022-09-09T16:18:58.743Z,0.50
2022-09-09T16:21:31.352Z,0.60
2022-09-09T16:24:01.454Z,0.50
2022-09-09T16:26:31.828Z,0.60
2022-09-09T16:29:00.826Z,0.73
2022-09-09T16:31:30.036Z,2.22
2022-09-09T16:33:57.479Z,0.70
2022-09-09T16:36:26.622Z,1.38
2022-09-09T16:38:58.295Z,0.70
2022-09-09T16:41:26.553Z,0.50
2022-09-09T16:44:00.669Z,0.77
2022-09-09T16:46:29.228Z,0.77
2022-09-09T16:49:00.387Z,0.50
2022-09-09T16:51:32.276Z,0.40
2022-09-09T16:54:01.231Z,0.70
2022-09-09T16:56:29.499Z,0.55
2022-09-09T16:58:58.065Z,0.40
2022-09-09T17:01:26.022Z,0.50
2022-09-09T17:04:01.995Z,0.60
2022-09-09T17:06:30.353Z,0.30
2022-09-09T17:09:02.236Z,0.30
2022-09-09T17:11:29.989Z,0.43
2022-09-09T17:13:59.053Z,0.40
2022-09-09T17:16:30.745Z,0.40
2022-09-09T17:18:59.490Z,0.40
2022-09-09T17:21:27.414Z,0.50
2022-09-09T17:23:55.098Z,0.40
2022-09-09T17:26:23.866Z,0.35
2022-09-09T17:28:50.625Z,0.43
2022-09-09T17:31:18.664Z,0.50
2022-09-09T17:33:49.310Z,0.50
2022-09-09T17:36:28.459Z,0.30
2022-09-09T17:38:55.573Z,0.40
2022-09-09T17:41:31.643Z,0.35
2022-09-09T17:43:59.386Z,0.47
2022-09-09T17:46:35.235Z,0.50
2022-09-09T17:49:04.711Z,0.50
2022-09-09T17:51:32.887Z,0.40
2022-09-09T17:54:11.088Z,0.50
2022-09-09T17:56:39.324Z,0.60
2022-09-09T17:59:08.315Z,0.60
2022-09-09T18:01:38.557Z,0.73
2022-09-09T18:04:07.164Z,0.63
2022-09-09T18:06:36.420Z,0.63
2022-09-09T18:09:08.082Z,0.40
2022-09-09T18:11:42.458Z,1.02
2022-09-09T18:14:11.297Z,0.85
2022-09-09T18:16:38.666Z,0.82
2022-09-09T18:19:08.345Z,0.70
2022-09-09T18:21:36.151Z,0.50
2022-09-09T18:24:05.319Z,0.50
2022-09-09T18:26:33.703Z,0.70
2022-09-09T18:29:03.644Z,0.70
2022-09-09T18:31:30.885Z,0.73
2022-09-09T18:33:59.929Z,0.80
2022-09-09T18:36:28.851Z,0.90
2022-09-09T18:38:57.682Z,1.00
2022-09-09T18:41:27.980Z,0.73
2022-09-09T18:43:58.086Z,0.80
2022-09-09T18:46:26.829Z,0.90
2022-09-09T18:48:53.731Z,0.70
2022-09-09T18:51:23.269Z,0.70
2022-09-09T18:53:55.680Z,0.60
2022-09-09T18:56:23.150Z,0.80
2022-09-09T18:58:58.566Z,0.60
2022-09-09T19:01:26.144Z,0.68
2022-09-09T19:03:54.384Z,0.60
2022-09-09T19:06:23.963Z,0.60
2022-09-09T19:08:54.736Z,0.68
2022-09-09T19:11:24.341Z,0.63
2022-09-09T19:14:04.863Z,0.70
2022-09-09T19:16:34.737Z,0.77
2022-09-09T19:19:07.736Z,0.60
2022-09-09T19:21:37.910Z,0.98
2022-09-09T19:24:17.580Z,0.80
2022-09-09T19:26:46.335Z,0.70
2022-09-09T19:29:15.695Z,1.20
2022-09-09T19:31:59.531Z,1.25
2022-09-09T19:34:32.213Z,1.27
2022-09-09T19:37:00.108Z,1.20
2022-09-09T19:39:27.136Z,1.10
2022-09-09T19:41:53.835Z,1.20
2022-09-09T19:44:20.503Z,1.13
2022-09-09T19:46:47.207Z,0.98
2022-09-09T19:49:15.643Z,1.13
2022-09-09T19:51:43.264Z,0.80
2022-09-09T19:54:13.887Z,1.40
2022-09-09T19:56:41.835Z,1.05
2022-09-09T19:59:09.801Z,1.10
2022-09-09T20:01:40.339Z,1.23
2022-09-09T20:04:08.642Z,1.30
2022-09-09T20:06:40.147Z,1.10
2022-09-09T20:09:10.405Z,1.13
2022-09-09T20:14:05.002Z,1.50
2022-09-09T20:16:33.142Z,1.80
2022-09-09T20:19:02.074Z,1.98
2022-09-09T20:21:31.858Z,2.00
2022-09-09T20:24:04.566Z,2.30
2022-09-09T20:26:33.511Z,2.60
2022-09-09T20:29:00.824Z,2.33
2022-09-09T20:31:32.082Z,2.75
2022-09-09T20:33:59.134Z,2.55
2022-09-09T20:36:28.919Z,2.67
2022-09-09T20:38:58.596Z,3.03
2022-09-09T20:41:36.671Z,3.10
2022-09-09T20:44:13.989Z,3.13
2022-09-09T20:46:46.061Z,3.63
2022-09-09T20:49:16.374Z,3.50
2022-09-09T20:51:43.750Z,3.40
2022-09-09T20:54:18.445Z,2.88
2022-09-09T20:56:48.272Z,3.10
2022-09-09T20:59:18.928Z,3.40
2022-09-09T21:01:47.703Z,3.10
2022-09-09T21:04:16.239Z,2.53
2022-09-09T21:06:42.858Z,2.60
2022-09-09T21:09:09.514Z,2.47
2022-09-09T21:11:36.907Z,2.35
2022-09-09T21:14:03.931Z,2.38
2022-09-09T21:16:31.468Z,2.15
2022-09-09T21:18:59.435Z,2.10
2022-09-09T21:21:26.427Z,2.40
2022-09-09T21:23:58.339Z,2.08
2022-09-09T21:26:25.759Z,2.20
2022-09-09T21:28:53.455Z,2.35
2022-09-09T21:31:21.733Z,2.30
2022-09-09T21:33:52.430Z,2.03
2022-09-09T21:36:19.405Z,2.30
2022-09-09T21:38:46.437Z,2.40
2022-09-09T21:41:14.835Z,2.53
2022-09-09T21:43:42.861Z,2.17
2022-09-09T21:46:12.135Z,2.60
2022-09-09T21:48:39.530Z,2.50
2022-09-09T21:51:09.449Z,2.67
2022-09-09T21:53:36.130Z,2.38
2022-09-09T21:56:07.821Z,2.40
2022-09-09T21:58:35.166Z,2.67
2022-09-09T22:01:02.352Z,2.95
2022-09-09T22:03:29.417Z,3.00
2022-09-09T22:05:56.295Z,2.70
2022-09-09T22:08:22.873Z,2.92
2022-09-09T22:10:49.611Z,2.35
2022-09-09T22:13:19.435Z,3.13
2022-09-09T22:15:46.665Z,3.08
2022-09-09T22:18:15.885Z,2.50
2022-09-09T22:20:45.091Z,2.90
2022-09-09T22:23:12.174Z,3.22
2022-09-09T22:25:39.759Z,2.90
2022-09-09T22:28:08.278Z,2.90
2022-09-09T22:30:35.407Z,2.90
2022-09-09T22:33:02.485Z,3.10
2022-09-09T22:35:29.640Z,3.08
2022-09-09T22:37:57.195Z,3.30
2022-09-09T22:40:23.978Z,3.10
2022-09-09T22:42:53.139Z,3.28
2022-09-09T22:45:21.531Z,3.30
2022-09-09T22:47:48.324Z,3.40
2022-09-09T22:50:15.184Z,3.22
2022-09-09T22:52:42.273Z,3.45
2022-09-09T22:55:09.334Z,3.22
2022-09-09T22:57:36.367Z,3.15
2022-09-09T23:00:07.810Z,3.00
2022-09-09T23:02:38.705Z,3.40
2022-09-09T23:05:08.575Z,3.53
2022-09-09T23:07:36.499Z,2.97
2022-09-09T23:10:05.380Z,3.13
2022-09-09T23:12:32.257Z,2.70
2022-09-09T23:14:58.921Z,2.85
2022-09-09T23:17:25.966Z,2.65
2022-09-09T23:19:54.262Z,2.47
2022-09-09T23:22:21.171Z,2.88
2022-09-09T23:24:49.101Z,2.20
2022-09-09T23:27:16.187Z,1.67
2022-09-09T23:29:42.872Z,2.00
2022-09-09T23:32:09.819Z,1.88
2022-09-09T23:34:37.161Z,1.90
2022-09-09T23:37:03.802Z,1.88
2022-09-09T23:39:30.447Z,1.90
2022-09-09T23:41:57.625Z,2.10
2022-09-09T23:44:24.766Z,2.55
2022-09-09T23:46:51.443Z,2.50
2022-09-09T23:49:18.085Z,2.10
2022-09-09T23:51:44.875Z,2.20
2022-09-09T23:54:11.942Z,1.90
2022-09-09T23:56:42.486Z,1.30
2022-09-09T23:59:09.130Z,1.52
